OCNL LTGICCG S-SW TS S-SW MOV E (KDTW)

Just another typical Michigan November thunderstorm (?!?). Occasional lightning, lightning intercloud cloud-to-ground from the south-southwest moving east – as seen from Detroit Metro Airport.

Image from Strikestar at about 2:00 p.m.

Image_gen

KDTW 141901Z 30004KT 1 3/4SM TSRA OVC011CB 10/07 A2958 RMK AO2 TWR VIS 4 PRESRR OCNL LTGICCG S-SW TS S-SW MOV E P0002

Advertisements

Leave a Reply

Fill in your details below or click an icon to log in:

WordPress.com Logo

You are commenting using your WordPress.com account. Log Out / Change )

Twitter picture

You are commenting using your Twitter account. Log Out / Change )

Facebook photo

You are commenting using your Facebook account. Log Out / Change )

Google+ photo

You are commenting using your Google+ account. Log Out / Change )

Connecting to %s